createdAt,value
2022-07-26T00:02:07.733Z,0.60
2022-07-26T00:04:42.436Z,0.50
2022-07-26T00:09:51.493Z,0.80
2022-07-26T00:15:00.779Z,0.60
2022-07-26T00:17:38.131Z,0.85
2022-07-26T00:20:13.129Z,0.75
2022-07-26T00:22:47.832Z,0.70
2022-07-26T00:25:24.076Z,0.70
2022-07-26T00:27:58.791Z,0.93
2022-07-26T00:33:13.161Z,0.82
2022-07-26T00:35:47.938Z,0.63
2022-07-26T00:38:22.650Z,0.70
2022-07-26T00:43:31.658Z,0.60
2022-07-26T00:46:09.847Z,0.82
2022-07-26T00:48:47.285Z,0.90
2022-07-26T00:51:22.255Z,0.70
2022-07-26T00:53:56.965Z,0.90
2022-07-26T00:59:06.669Z,0.73
2022-07-26T01:01:41.649Z,0.70
2022-07-26T01:04:19.413Z,0.90
2022-07-26T01:06:54.167Z,1.42
2022-07-26T01:09:28.895Z,0.80
2022-07-26T01:14:40.358Z,0.80
2022-07-26T01:17:15.595Z,0.88
2022-07-26T01:19:52.891Z,0.50
2022-07-26T01:22:30.192Z,0.75
2022-07-26T01:25:04.857Z,1.00
2022-07-26T01:30:15.327Z,1.08
2022-07-26T01:32:50.062Z,0.90
2022-07-26T01:35:24.903Z,0.95
2022-07-26T01:38:06.530Z,0.63
2022-07-26T01:40:41.227Z,0.85
2022-07-26T01:45:50.589Z,0.70
2022-07-26T01:48:25.416Z,0.93
2022-07-26T01:51:00.171Z,0.95
2022-07-26T01:53:37.755Z,0.75
2022-07-26T01:56:12.464Z,0.70
2022-07-26T02:01:38.322Z,0.70
2022-07-26T02:04:34.847Z,0.65
2022-07-26T02:07:13.102Z,0.65
2022-07-26T02:09:50.821Z,0.88
2022-07-26T02:12:26.851Z,0.95
2022-07-26T02:15:01.783Z,0.90
2022-07-26T02:17:39.726Z,0.77
2022-07-26T02:20:17.175Z,0.77
2022-07-26T02:22:51.915Z,0.60
2022-07-26T02:28:03.922Z,0.70
2022-07-26T02:30:39.437Z,0.80
2022-07-26T02:33:14.403Z,0.80
2022-07-26T02:35:49.324Z,0.60
2022-07-26T02:38:25.147Z,1.00
2022-07-26T02:41:00.006Z,0.80
2022-07-26T02:46:11.834Z,0.80
2022-07-26T02:48:46.590Z,0.85
2022-07-26T02:51:22.537Z,0.70
2022-07-26T02:53:57.275Z,0.60
2022-07-26T02:56:31.968Z,0.60
2022-07-26T03:01:43.698Z,0.70
2022-07-26T03:04:18.489Z,0.70
2022-07-26T03:09:27.482Z,0.90
2022-07-26T03:14:36.538Z,0.55
2022-07-26T03:19:48.210Z,0.80
2022-07-26T03:22:22.910Z,0.80
2022-07-26T03:27:31.963Z,0.77
2022-07-26T03:32:41.219Z,0.55
2022-07-26T03:35:18.588Z,0.73
2022-07-26T03:37:53.294Z,0.60
2022-07-26T03:43:03.933Z,0.60
2022-07-26T03:48:12.978Z,0.57
2022-07-26T03:53:24.613Z,1.00
2022-07-26T03:56:11.651Z,0.60
2022-07-26T03:58:46.325Z,0.60
2022-07-26T04:03:55.419Z,0.60
2022-07-26T04:06:30.198Z,0.52
2022-07-26T04:09:08.035Z,0.70
2022-07-26T04:11:43.078Z,0.52
2022-07-26T04:14:18.069Z,0.50
2022-07-26T04:16:52.747Z,0.60
2022-07-26T04:22:01.914Z,0.50
2022-07-26T04:27:16.324Z,0.40
2022-07-26T04:29:51.173Z,0.60
2022-07-26T04:32:25.857Z,0.77
2022-07-26T04:37:40.970Z,0.55
2022-07-26T04:40:21.292Z,0.60
2022-07-26T04:42:59.648Z,0.60
2022-07-26T04:45:35.730Z,0.60
2022-07-26T04:48:10.526Z,0.50
2022-07-26T04:50:45.478Z,0.47
2022-07-26T04:53:20.152Z,0.73
2022-07-26T04:58:31.839Z,0.60
2022-07-26T05:01:10.727Z,0.70
2022-07-26T05:03:45.922Z,0.50
2022-07-26T05:08:54.977Z,0.50
2022-07-26T05:14:07.196Z,0.52
2022-07-26T05:16:44.213Z,0.60
2022-07-26T05:19:19.555Z,0.50
2022-07-26T05:24:29.339Z,0.65
2022-07-26T05:27:04.019Z,0.73
2022-07-26T05:32:16.334Z,0.50
2022-07-26T05:34:51.033Z,0.47
2022-07-26T05:40:00.084Z,0.60
2022-07-26T05:42:34.791Z,0.60
2022-07-26T05:47:46.521Z,0.70
2022-07-26T05:50:21.344Z,0.63
2022-07-26T05:52:56.025Z,0.60
2022-07-26T05:58:05.086Z,0.65
2022-07-26T06:03:26.091Z,0.77
2022-07-26T06:06:01.614Z,0.60
2022-07-26T06:08:36.491Z,0.50
2022-07-26T06:11:11.355Z,0.82
2022-07-26T06:13:46.182Z,0.70
2022-07-26T06:16:20.924Z,0.57
2022-07-26T06:18:58.304Z,0.90
2022-07-26T06:21:33.017Z,0.68
2022-07-26T06:24:11.142Z,0.73
2022-07-26T06:26:46.838Z,0.80
2022-07-26T06:29:21.487Z,0.90
2022-07-26T06:31:57.121Z,0.70
2022-07-26T06:34:34.537Z,1.00
2022-07-26T06:37:09.244Z,0.80
2022-07-26T06:42:18.412Z,0.82
2022-07-26T06:44:53.094Z,0.80
2022-07-26T06:50:07.112Z,0.63
2022-07-26T06:52:41.813Z,0.60
2022-07-26T06:55:22.722Z,0.70
2022-07-26T07:00:31.780Z,0.60
2022-07-26T07:05:49.324Z,0.93
2022-07-26T07:08:25.031Z,0.68
2022-07-26T07:10:59.814Z,0.50
2022-07-26T07:13:36.585Z,0.63
2022-07-26T07:18:45.639Z,0.63
2022-07-26T07:23:57.310Z,0.43
2022-07-26T07:26:32.836Z,0.57
2022-07-26T07:29:12.901Z,0.60
2022-07-26T07:31:49.573Z,0.40
2022-07-26T07:34:25.610Z,0.77
2022-07-26T07:37:00.862Z,0.75
2022-07-26T07:39:38.813Z,0.50
2022-07-26T07:42:13.652Z,0.70
2022-07-26T07:47:22.656Z,0.52
2022-07-26T07:52:31.698Z,0.85
2022-07-26T07:58:06.679Z,0.90
2022-07-26T08:00:41.512Z,0.73
2022-07-26T08:03:17.732Z,0.80
2022-07-26T08:05:53.355Z,0.93
2022-07-26T08:11:02.448Z,0.80
2022-07-26T08:13:45.801Z,1.02
2022-07-26T08:16:22.611Z,1.15
2022-07-26T08:18:58.473Z,0.80
2022-07-26T08:21:33.422Z,2.50
2022-07-26T08:24:08.503Z,2.85
2022-07-26T08:26:43.189Z,1.73
2022-07-26T08:31:55.776Z,1.15
2022-07-26T08:34:30.698Z,0.77
2022-07-26T08:37:17.094Z,0.90
2022-07-26T08:39:52.734Z,0.80
2022-07-26T08:42:27.465Z,0.90
2022-07-26T08:48:07.397Z,0.60
2022-07-26T08:50:38.794Z,0.65
2022-07-26T08:53:13.582Z,0.93
2022-07-26T08:56:06.453Z,0.82
2022-07-26T08:58:43.641Z,0.85
2022-07-26T09:01:18.700Z,0.77
2022-07-26T09:03:56.247Z,0.80
2022-07-26T09:06:30.992Z,0.75
2022-07-26T09:11:40.407Z,0.75
2022-07-26T09:14:15.467Z,0.75
2022-07-26T09:17:01.543Z,0.80
2022-07-26T09:19:38.947Z,0.63
2022-07-26T09:22:14.509Z,0.60
2022-07-26T09:24:50.385Z,0.70
2022-07-26T09:27:28.175Z,0.70
2022-07-26T09:30:07.547Z,0.70
2022-07-26T09:32:42.308Z,0.70
2022-07-26T09:35:49.635Z,0.52
2022-07-26T09:38:16.975Z,0.60
2022-07-26T09:40:55.545Z,0.70
2022-07-26T09:43:39.040Z,0.70
2022-07-26T09:46:14.015Z,0.73
2022-07-26T09:51:46.514Z,0.60
2022-07-26T09:54:22.126Z,0.65
2022-07-26T09:56:56.848Z,0.82
2022-07-26T10:02:07.709Z,0.60
2022-07-26T10:04:42.418Z,0.60
2022-07-26T10:09:57.584Z,0.57
2022-07-26T10:12:34.240Z,0.70
2022-07-26T10:15:09.707Z,0.60
2022-07-26T10:17:45.003Z,0.60
2022-07-26T10:20:34.635Z,0.52
2022-07-26T10:23:29.789Z,0.50
2022-07-26T10:26:08.063Z,0.50
2022-07-26T10:28:44.817Z,0.93
2022-07-26T10:31:33.237Z,0.77
2022-07-26T10:34:08.143Z,0.45
2022-07-26T10:36:43.043Z,0.50
2022-07-26T10:42:03.693Z,0.70
2022-07-26T10:44:39.343Z,0.65
2022-07-26T10:47:16.052Z,0.60
2022-07-26T10:49:58.417Z,0.60
2022-07-26T10:52:33.693Z,0.57
2022-07-26T10:55:11.680Z,0.70
2022-07-26T10:57:49.705Z,0.73
2022-07-26T11:00:25.609Z,0.57
2022-07-26T11:03:00.949Z,0.60
2022-07-26T11:05:36.390Z,0.43
2022-07-26T11:08:14.147Z,0.50
2022-07-26T11:10:49.740Z,0.68
2022-07-26T11:13:27.047Z,0.60
2022-07-26T11:16:03.268Z,0.60
2022-07-26T11:18:41.641Z,0.60
2022-07-26T11:21:17.391Z,0.70
2022-07-26T11:23:52.224Z,0.50
2022-07-26T11:26:27.050Z,0.68
2022-07-26T11:29:06.647Z,0.60
2022-07-26T11:31:50.604Z,0.40
2022-07-26T11:34:35.772Z,0.55
2022-07-26T11:37:10.492Z,0.60
2022-07-26T11:39:45.234Z,0.60
2022-07-26T11:42:22.255Z,0.50
2022-07-26T11:44:59.839Z,0.63
2022-07-26T11:47:34.625Z,0.60
2022-07-26T11:50:18.718Z,0.50
2022-07-26T11:52:57.724Z,0.50
2022-07-26T11:55:33.257Z,0.52
2022-07-26T11:58:08.478Z,0.50
2022-07-26T12:00:45.924Z,0.50
2022-07-26T12:03:20.855Z,0.60
2022-07-26T12:06:05.130Z,1.50
2022-07-26T12:08:43.436Z,0.90
2022-07-26T12:11:21.146Z,0.60
2022-07-26T12:13:57.333Z,0.55
2022-07-26T12:16:45.273Z,0.70
2022-07-26T12:19:27.792Z,0.40
2022-07-26T12:22:12.336Z,0.55
2022-07-26T12:24:49.339Z,0.38
2022-07-26T12:27:25.352Z,0.38
2022-07-26T12:30:17.433Z,0.40
2022-07-26T12:32:55.474Z,0.40
2022-07-26T12:35:33.701Z,0.35
2022-07-26T12:38:08.750Z,0.40
2022-07-26T12:40:44.344Z,0.43
2022-07-26T12:43:19.048Z,0.52
2022-07-26T12:48:30.941Z,0.38
2022-07-26T12:51:06.671Z,0.30
2022-07-26T12:53:41.353Z,0.47
2022-07-26T12:58:50.398Z,0.45
2022-07-26T13:04:02.619Z,0.47
2022-07-26T13:06:37.368Z,0.40
2022-07-26T13:11:46.491Z,0.60
2022-07-26T13:14:24.239Z,0.40
2022-07-26T13:16:59.036Z,0.40
2022-07-26T13:19:37.132Z,0.30
2022-07-26T13:22:11.959Z,0.38
2022-07-26T13:24:46.677Z,0.50
2022-07-26T13:27:21.429Z,0.20
2022-07-26T13:32:31.737Z,0.28
2022-07-26T13:35:12.943Z,0.30
2022-07-26T13:37:47.624Z,0.30
2022-07-26T13:42:56.686Z,0.30
2022-07-26T13:48:06.082Z,0.20
2022-07-26T13:50:43.531Z,0.30
2022-07-26T13:53:18.396Z,0.22
2022-07-26T13:55:53.238Z,0.38
2022-07-26T13:58:28.011Z,0.35
2022-07-26T14:01:03.839Z,0.30
2022-07-26T14:03:38.604Z,0.30
2022-07-26T14:06:16.085Z,0.40
2022-07-26T14:08:50.765Z,0.13
2022-07-26T14:13:59.941Z,0.10
2022-07-26T14:16:35.158Z,0.30
2022-07-26T14:19:10.394Z,0.30
2022-07-26T14:21:59.726Z,0.35
2022-07-26T14:24:35.193Z,0.40
2022-07-26T14:27:09.941Z,0.40
2022-07-26T14:29:46.354Z,0.20
2022-07-26T14:32:21.974Z,0.40
2022-07-26T14:34:56.994Z,0.47
2022-07-26T14:40:21.894Z,0.40
2022-07-26T14:42:56.708Z,0.55
2022-07-26T14:45:31.724Z,0.35
2022-07-26T14:48:08.978Z,0.38
2022-07-26T14:51:08.219Z,0.32
2022-07-26T14:53:38.407Z,1.00
2022-07-26T14:56:15.681Z,0.60
2022-07-26T14:58:50.410Z,0.43
2022-07-26T15:01:25.180Z,0.40
2022-07-26T15:03:59.950Z,0.50
2022-07-26T15:06:34.703Z,0.50
2022-07-26T15:09:09.414Z,0.40
2022-07-26T15:14:21.170Z,0.47
2022-07-26T15:16:55.899Z,0.50
2022-07-26T15:19:30.616Z,0.43
2022-07-26T15:24:40.187Z,0.50
2022-07-26T15:27:15.064Z,0.30
2022-07-26T15:29:52.515Z,0.50
2022-07-26T15:32:27.370Z,0.70
2022-07-26T15:35:02.916Z,0.43
2022-07-26T15:37:37.780Z,0.52
2022-07-26T15:40:13.212Z,0.45
2022-07-26T15:42:49.261Z,0.55
2022-07-26T15:45:26.871Z,0.40
2022-07-26T15:48:15.833Z,0.32
2022-07-26T15:50:52.712Z,0.50
2022-07-26T15:53:29.293Z,0.30
2022-07-26T15:56:04.702Z,0.50
2022-07-26T15:58:39.744Z,0.60
2022-07-26T16:01:17.626Z,0.50
2022-07-26T16:03:52.389Z,0.50
2022-07-26T16:06:27.182Z,0.57
2022-07-26T16:09:24.162Z,0.70
2022-07-26T16:11:57.281Z,0.50
2022-07-26T16:14:32.229Z,0.60
2022-07-26T16:17:09.555Z,0.50
2022-07-26T16:19:44.256Z,0.70
2022-07-26T16:24:53.290Z,0.70
2022-07-26T16:30:02.947Z,0.50
2022-07-26T16:32:40.272Z,0.52
2022-07-26T16:35:15.412Z,0.60
2022-07-26T16:37:50.417Z,0.50
2022-07-26T16:40:25.239Z,0.60
2022-07-26T16:42:59.961Z,0.60
2022-07-26T16:45:43.416Z,0.70
2022-07-26T16:48:20.706Z,0.50
2022-07-26T16:50:55.404Z,0.52
2022-07-26T16:56:04.433Z,0.50
2022-07-26T17:01:13.597Z,0.80
2022-07-26T17:03:50.981Z,0.52
2022-07-26T17:06:25.769Z,0.80
2022-07-26T17:09:00.531Z,0.40
2022-07-26T17:11:35.398Z,0.40
2022-07-26T17:14:10.111Z,0.52
2022-07-26T17:19:21.751Z,0.95
2022-07-26T17:21:56.456Z,0.50
2022-07-26T17:27:08.230Z,0.43
2022-07-26T17:29:42.907Z,0.60
2022-07-26T17:34:54.700Z,0.60
2022-07-26T17:37:29.428Z,0.60
2022-07-26T17:42:38.674Z,0.60
2022-07-26T17:47:47.959Z,0.50
2022-07-26T17:50:36.602Z,0.60
2022-07-26T17:53:11.987Z,0.70
2022-07-26T17:58:21.301Z,0.55
2022-07-26T18:00:55.977Z,0.70
2022-07-26T18:06:07.769Z,0.65
2022-07-26T18:08:42.459Z,0.70
2022-07-26T18:11:17.621Z,0.80
2022-07-26T18:13:52.296Z,0.50
2022-07-26T18:19:02.203Z,0.63
2022-07-26T18:21:39.525Z,0.50
2022-07-26T18:24:17.265Z,0.50
2022-07-26T18:26:52.448Z,0.70
2022-07-26T18:32:02.342Z,0.57
2022-07-26T18:34:37.117Z,0.57
2022-07-26T18:37:14.556Z,0.65
2022-07-26T18:39:52.713Z,0.80
2022-07-26T18:42:30.270Z,0.80
2022-07-26T18:47:40.253Z,0.52
2022-07-26T18:50:17.257Z,0.60
2022-07-26T18:52:54.789Z,0.68
2022-07-26T18:55:29.778Z,0.90
2022-07-26T18:58:06.866Z,0.73
2022-07-26T19:00:43.468Z,0.63
2022-07-26T19:03:19.868Z,0.55
2022-07-26T19:05:54.590Z,0.70
